sensor_id;sensor_type;location;lat;lon;timestamp;P1;durP1;ratioP1;P2;durP2;ratioP2
2860;SDS011;1438;50.922;6.704;2022-07-21T00:02:07;13.50;;;12.10;;
2860;SDS011;1438;50.922;6.704;2022-07-21T00:04:33;15.63;;;13.77;;
2860;SDS011;1438;50.922;6.704;2022-07-21T00:07:00;16.63;;;13.57;;
2860;SDS011;1438;50.922;6.704;2022-07-21T00:09:26;15.37;;;13.60;;
2860;SDS011;1438;50.922;6.704;2022-07-21T00:11:52;16.93;;;14.70;;
2860;SDS011;1438;50.922;6.704;2022-07-21T00:14:18;16.67;;;14.47;;
2860;SDS011;1438;50.922;6.704;2022-07-21T00:16:44;14.50;;;12.10;;
2860;SDS011;1438;50.922;6.704;2022-07-21T00:19:10;16.40;;;14.60;;
2860;SDS011;1438;50.922;6.704;2022-07-21T00:21:37;17.33;;;15.60;;
2860;SDS011;1438;50.922;6.704;2022-07-21T00:24:03;20.47;;;15.80;;
2860;SDS011;1438;50.922;6.704;2022-07-21T00:26:29;17.20;;;15.50;;
2860;SDS011;1438;50.922;6.704;2022-07-21T00:28:55;16.97;;;15.17;;
2860;SDS011;1438;50.922;6.704;2022-07-21T00:31:21;18.73;;;16.10;;
2860;SDS011;1438;50.922;6.704;2022-07-21T00:33:47;17.40;;;15.60;;
2860;SDS011;1438;50.922;6.704;2022-07-21T00:36:16;17.23;;;14.97;;
2860;SDS011;1438;50.922;6.704;2022-07-21T00:38:42;20.97;;;16.70;;
2860;SDS011;1438;50.922;6.704;2022-07-21T00:41:08;17.40;;;15.40;;
2860;SDS011;1438;50.922;6.704;2022-07-21T00:43:34;17.90;;;14.97;;
2860;SDS011;1438;50.922;6.704;2022-07-21T00:46:00;18.33;;;16.23;;
2860;SDS011;1438;50.922;6.704;2022-07-21T00:48:26;19.93;;;15.30;;
2860;SDS011;1438;50.922;6.704;2022-07-21T00:50:52;18.53;;;15.93;;
2860;SDS011;1438;50.922;6.704;2022-07-21T00:53:18;21.57;;;15.10;;
2860;SDS011;1438;50.922;6.704;2022-07-21T00:55:45;21.50;;;15.00;;
2860;SDS011;1438;50.922;6.704;2022-07-21T00:58:14;19.23;;;15.50;;
2860;SDS011;1438;50.922;6.704;2022-07-21T01:00:40;15.73;;;14.23;;
2860;SDS011;1438;50.922;6.704;2022-07-21T01:03:06;15.90;;;13.83;;
2860;SDS011;1438;50.922;6.704;2022-07-21T01:05:32;19.13;;;14.23;;
2860;SDS011;1438;50.922;6.704;2022-07-21T01:07:58;17.07;;;15.23;;
2860;SDS011;1438;50.922;6.704;2022-07-21T01:10:27;17.87;;;14.27;;
2860;SDS011;1438;50.922;6.704;2022-07-21T01:12:54;16.10;;;14.40;;
2860;SDS011;1438;50.922;6.704;2022-07-21T01:15:20;16.90;;;15.10;;
2860;SDS011;1438;50.922;6.704;2022-07-21T01:17:47;23.20;;;16.93;;
2860;SDS011;1438;50.922;6.704;2022-07-21T01:20:14;20.23;;;18.20;;
2860;SDS011;1438;50.922;6.704;2022-07-21T01:22:41;20.97;;;17.10;;
2860;SDS011;1438;50.922;6.704;2022-07-21T01:25:08;19.97;;;17.83;;
2860;SDS011;1438;50.922;6.704;2022-07-21T01:27:34;18.13;;;16.10;;
2860;SDS011;1438;50.922;6.704;2022-07-21T01:30:00;24.60;;;17.80;;
2860;SDS011;1438;50.922;6.704;2022-07-21T01:32:26;19.97;;;17.27;;
2860;SDS011;1438;50.922;6.704;2022-07-21T01:34:52;24.27;;;17.70;;
2860;SDS011;1438;50.922;6.704;2022-07-21T01:37:22;20.83;;;18.67;;
2860;SDS011;1438;50.922;6.704;2022-07-21T01:39:51;28.00;;;18.10;;
2860;SDS011;1438;50.922;6.704;2022-07-21T01:42:35;24.70;;;19.00;;
2860;SDS011;1438;50.922;6.704;2022-07-21T01:45:02;20.67;;;18.57;;
2860;SDS011;1438;50.922;6.704;2022-07-21T01:47:28;21.70;;;18.20;;
2860;SDS011;1438;50.922;6.704;2022-07-21T01:49:55;19.03;;;16.87;;
2860;SDS011;1438;50.922;6.704;2022-07-21T01:52:21;18.33;;;16.50;;
2860;SDS011;1438;50.922;6.704;2022-07-21T01:54:47;20.13;;;18.03;;
2860;SDS011;1438;50.922;6.704;2022-07-21T01:57:13;19.33;;;17.43;;
2860;SDS011;1438;50.922;6.704;2022-07-21T01:59:40;23.60;;;17.00;;
2860;SDS011;1438;50.922;6.704;2022-07-21T02:02:06;20.80;;;18.00;;
2860;SDS011;1438;50.922;6.704;2022-07-21T02:04:32;18.43;;;16.10;;
2860;SDS011;1438;50.922;6.704;2022-07-21T02:06:59;21.10;;;17.03;;
2860;SDS011;1438;50.922;6.704;2022-07-21T02:09:25;18.30;;;15.10;;
2860;SDS011;1438;50.922;6.704;2022-07-21T02:11:51;17.70;;;15.97;;
2860;SDS011;1438;50.922;6.704;2022-07-21T02:14:17;19.00;;;15.97;;
2860;SDS011;1438;50.922;6.704;2022-07-21T02:16:43;18.07;;;16.23;;
2860;SDS011;1438;50.922;6.704;2022-07-21T02:19:09;19.70;;;16.70;;
2860;SDS011;1438;50.922;6.704;2022-07-21T02:21:35;17.70;;;16.00;;
2860;SDS011;1438;50.922;6.704;2022-07-21T02:24:02;21.40;;;16.40;;
2860;SDS011;1438;50.922;6.704;2022-07-21T02:26:28;18.07;;;16.17;;
2860;SDS011;1438;50.922;6.704;2022-07-21T02:28:54;18.87;;;15.87;;
2860;SDS011;1438;50.922;6.704;2022-07-21T02:31:20;17.50;;;15.77;;
2860;SDS011;1438;50.922;6.704;2022-07-21T02:33:46;18.63;;;16.10;;
2860;SDS011;1438;50.922;6.704;2022-07-21T02:36:12;18.00;;;15.13;;
2860;SDS011;1438;50.922;6.704;2022-07-21T02:38:38;15.57;;;14.07;;
2860;SDS011;1438;50.922;6.704;2022-07-21T02:41:04;17.77;;;15.87;;
2860;SDS011;1438;50.922;6.704;2022-07-21T02:43:30;20.70;;;15.30;;
2860;SDS011;1438;50.922;6.704;2022-07-21T02:45:56;19.93;;;17.07;;
2860;SDS011;1438;50.922;6.704;2022-07-21T02:48:22;18.60;;;16.17;;
2860;SDS011;1438;50.922;6.704;2022-07-21T02:50:49;17.73;;;15.93;;
2860;SDS011;1438;50.922;6.704;2022-07-21T02:53:16;17.80;;;15.83;;
2860;SDS011;1438;50.922;6.704;2022-07-21T02:55:45;19.23;;;15.00;;
2860;SDS011;1438;50.922;6.704;2022-07-21T02:58:13;20.63;;;13.90;;
2860;SDS011;1438;50.922;6.704;2022-07-21T03:00:41;17.90;;;15.30;;
2860;SDS011;1438;50.922;6.704;2022-07-21T03:03:08;21.63;;;15.97;;
2860;SDS011;1438;50.922;6.704;2022-07-21T03:05:35;21.63;;;15.50;;
2860;SDS011;1438;50.922;6.704;2022-07-21T03:08:01;16.77;;;15.10;;
2860;SDS011;1438;50.922;6.704;2022-07-21T03:10:27;17.83;;;15.97;;
2860;SDS011;1438;50.922;6.704;2022-07-21T03:12:53;17.33;;;15.53;;
2860;SDS011;1438;50.922;6.704;2022-07-21T03:15:20;17.60;;;15.53;;
2860;SDS011;1438;50.922;6.704;2022-07-21T03:17:46;17.20;;;15.40;;
2860;SDS011;1438;50.922;6.704;2022-07-21T03:20:12;17.17;;;14.90;;
2860;SDS011;1438;50.922;6.704;2022-07-21T03:22:38;17.70;;;15.07;;
2860;SDS011;1438;50.922;6.704;2022-07-21T03:25:04;16.40;;;14.70;;
2860;SDS011;1438;50.922;6.704;2022-07-21T03:27:31;16.73;;;15.03;;
2860;SDS011;1438;50.922;6.704;2022-07-21T03:30:01;16.90;;;15.10;;
2860;SDS011;1438;50.922;6.704;2022-07-21T03:32:27;19.90;;;16.70;;
2860;SDS011;1438;50.922;6.704;2022-07-21T03:34:53;16.77;;;14.90;;
2860;SDS011;1438;50.922;6.704;2022-07-21T03:37:19;17.27;;;15.63;;
2860;SDS011;1438;50.922;6.704;2022-07-21T03:39:45;20.10;;;14.50;;
2860;SDS011;1438;50.922;6.704;2022-07-21T03:42:11;19.93;;;14.60;;
2860;SDS011;1438;50.922;6.704;2022-07-21T03:44:37;16.10;;;14.40;;
2860;SDS011;1438;50.922;6.704;2022-07-21T03:47:03;16.87;;;13.97;;
2860;SDS011;1438;50.922;6.704;2022-07-21T03:49:29;15.73;;;13.03;;
2860;SDS011;1438;50.922;6.704;2022-07-21T03:51:55;16.10;;;13.93;;
2860;SDS011;1438;50.922;6.704;2022-07-21T03:54:21;16.67;;;13.37;;
2860;SDS011;1438;50.922;6.704;2022-07-21T03:56:47;16.20;;;14.53;;
2860;SDS011;1438;50.922;6.704;2022-07-21T03:59:13;15.47;;;13.87;;
2860;SDS011;1438;50.922;6.704;2022-07-21T04:01:39;18.83;;;15.47;;
2860;SDS011;1438;50.922;6.704;2022-07-21T04:04:05;16.57;;;14.43;;
2860;SDS011;1438;50.922;6.704;2022-07-21T04:06:31;21.27;;;14.00;;
2860;SDS011;1438;50.922;6.704;2022-07-21T04:08:57;16.17;;;14.60;;
2860;SDS011;1438;50.922;6.704;2022-07-21T04:11:23;16.57;;;14.10;;
2860;SDS011;1438;50.922;6.704;2022-07-21T04:13:49;16.47;;;14.13;;
2860;SDS011;1438;50.922;6.704;2022-07-21T04:16:15;20.00;;;14.30;;
2860;SDS011;1438;50.922;6.704;2022-07-21T04:18:41;15.10;;;13.50;;
2860;SDS011;1438;50.922;6.704;2022-07-21T04:21:07;15.10;;;13.00;;
2860;SDS011;1438;50.922;6.704;2022-07-21T04:23:33;16.30;;;14.00;;
2860;SDS011;1438;50.922;6.704;2022-07-21T04:25:59;14.97;;;13.27;;
2860;SDS011;1438;50.922;6.704;2022-07-21T04:28:25;14.77;;;13.13;;
2860;SDS011;1438;50.922;6.704;2022-07-21T04:30:51;14.23;;;12.77;;
2860;SDS011;1438;50.922;6.704;2022-07-21T04:33:17;14.27;;;12.83;;
2860;SDS011;1438;50.922;6.704;2022-07-21T04:35:43;13.77;;;12.30;;
2860;SDS011;1438;50.922;6.704;2022-07-21T04:38:09;15.80;;;12.93;;
2860;SDS011;1438;50.922;6.704;2022-07-21T04:40:36;14.07;;;12.47;;
2860;SDS011;1438;50.922;6.704;2022-07-21T04:43:02;16.10;;;13.33;;
2860;SDS011;1438;50.922;6.704;2022-07-21T04:45:28;21.63;;;13.43;;
2860;SDS011;1438;50.922;6.704;2022-07-21T04:47:54;16.20;;;13.77;;
2860;SDS011;1438;50.922;6.704;2022-07-21T04:50:21;16.43;;;13.47;;
2860;SDS011;1438;50.922;6.704;2022-07-21T04:52:48;14.33;;;12.67;;
2860;SDS011;1438;50.922;6.704;2022-07-21T04:55:14;20.87;;;13.70;;
2860;SDS011;1438;50.922;6.704;2022-07-21T04:57:42;17.90;;;13.67;;
2860;SDS011;1438;50.922;6.704;2022-07-21T05:00:09;13.47;;;11.70;;
2860;SDS011;1438;50.922;6.704;2022-07-21T05:02:36;13.60;;;12.30;;
2860;SDS011;1438;50.922;6.704;2022-07-21T05:05:02;12.63;;;11.33;;
2860;SDS011;1438;50.922;6.704;2022-07-21T05:07:28;15.80;;;11.67;;
2860;SDS011;1438;50.922;6.704;2022-07-21T05:09:54;13.23;;;11.50;;
2860;SDS011;1438;50.922;6.704;2022-07-21T05:12:21;13.70;;;12.30;;
2860;SDS011;1438;50.922;6.704;2022-07-21T05:14:47;13.63;;;11.60;;
2860;SDS011;1438;50.922;6.704;2022-07-21T05:17:13;17.30;;;12.57;;
2860;SDS011;1438;50.922;6.704;2022-07-21T05:19:39;13.83;;;12.00;;
2860;SDS011;1438;50.922;6.704;2022-07-21T05:22:07;11.63;;;10.57;;
2860;SDS011;1438;50.922;6.704;2022-07-21T05:24:33;12.73;;;10.90;;
2860;SDS011;1438;50.922;6.704;2022-07-21T05:26:59;12.47;;;11.20;;
2860;SDS011;1438;50.922;6.704;2022-07-21T05:29:25;12.87;;;11.70;;
2860;SDS011;1438;50.922;6.704;2022-07-21T05:31:51;12.67;;;11.47;;
2860;SDS011;1438;50.922;6.704;2022-07-21T05:34:17;13.77;;;11.63;;
2860;SDS011;1438;50.922;6.704;2022-07-21T05:36:43;12.70;;;11.40;;
2860;SDS011;1438;50.922;6.704;2022-07-21T05:39:09;16.03;;;11.43;;
2860;SDS011;1438;50.922;6.704;2022-07-21T05:41:35;11.27;;;10.27;;
2860;SDS011;1438;50.922;6.704;2022-07-21T05:44:01;14.07;;;12.33;;
2860;SDS011;1438;50.922;6.704;2022-07-21T05:46:27;11.37;;;10.27;;
2860;SDS011;1438;50.922;6.704;2022-07-21T05:48:53;12.43;;;11.00;;
2860;SDS011;1438;50.922;6.704;2022-07-21T05:51:19;12.53;;;10.33;;
2860;SDS011;1438;50.922;6.704;2022-07-21T05:53:45;13.00;;;11.00;;
2860;SDS011;1438;50.922;6.704;2022-07-21T05:56:12;12.23;;;10.37;;
2860;SDS011;1438;50.922;6.704;2022-07-21T05:58:38;12.13;;;10.80;;
2860;SDS011;1438;50.922;6.704;2022-07-21T06:01:04;11.37;;;10.27;;
2860;SDS011;1438;50.922;6.704;2022-07-21T06:03:33;9.83;;;8.57;;
2860;SDS011;1438;50.922;6.704;2022-07-21T06:05:59;9.67;;;8.27;;
2860;SDS011;1438;50.922;6.704;2022-07-21T06:08:25;9.40;;;8.50;;
2860;SDS011;1438;50.922;6.704;2022-07-21T06:10:51;8.70;;;7.80;;
2860;SDS011;1438;50.922;6.704;2022-07-21T06:13:17;9.97;;;7.57;;
2860;SDS011;1438;50.922;6.704;2022-07-21T06:15:43;8.90;;;7.80;;
2860;SDS011;1438;50.922;6.704;2022-07-21T06:18:09;8.83;;;6.97;;
2860;SDS011;1438;50.922;6.704;2022-07-21T06:20:35;10.67;;;7.60;;
2860;SDS011;1438;50.922;6.704;2022-07-21T06:23:02;6.07;;;5.40;;
2860;SDS011;1438;50.922;6.704;2022-07-21T06:25:28;5.80;;;5.20;;
2860;SDS011;1438;50.922;6.704;2022-07-21T06:27:54;5.70;;;5.20;;
2860;SDS011;1438;50.922;6.704;2022-07-21T06:30:20;5.90;;;5.40;;
2860;SDS011;1438;50.922;6.704;2022-07-21T06:32:46;5.63;;;5.13;;
2860;SDS011;1438;50.922;6.704;2022-07-21T06:35:12;6.53;;;5.90;;
2860;SDS011;1438;50.922;6.704;2022-07-21T06:37:38;6.23;;;4.77;;
2860;SDS011;1438;50.922;6.704;2022-07-21T06:40:04;5.13;;;4.73;;
2860;SDS011;1438;50.922;6.704;2022-07-21T06:42:30;5.23;;;4.73;;
2860;SDS011;1438;50.922;6.704;2022-07-21T06:44:56;6.80;;;4.83;;
2860;SDS011;1438;50.922;6.704;2022-07-21T06:47:22;5.50;;;5.10;;
2860;SDS011;1438;50.922;6.704;2022-07-21T06:49:48;4.73;;;4.33;;
2860;SDS011;1438;50.922;6.704;2022-07-21T06:52:14;4.67;;;4.30;;
2860;SDS011;1438;50.922;6.704;2022-07-21T06:54:40;5.23;;;4.63;;
2860;SDS011;1438;50.922;6.704;2022-07-21T06:57:06;5.27;;;4.57;;
2860;SDS011;1438;50.922;6.704;2022-07-21T06:59:32;4.77;;;4.20;;
2860;SDS011;1438;50.922;6.704;2022-07-21T07:01:58;5.63;;;5.03;;
2860;SDS011;1438;50.922;6.704;2022-07-21T07:04:24;6.10;;;5.53;;
2860;SDS011;1438;50.922;6.704;2022-07-21T07:06:50;5.97;;;5.40;;
2860;SDS011;1438;50.922;6.704;2022-07-21T07:09:18;6.03;;;5.47;;
2860;SDS011;1438;50.922;6.704;2022-07-21T07:11:44;6.03;;;5.43;;
2860;SDS011;1438;50.922;6.704;2022-07-21T07:14:12;8.70;;;7.03;;
2860;SDS011;1438;50.922;6.704;2022-07-21T07:16:38;6.77;;;6.17;;
2860;SDS011;1438;50.922;6.704;2022-07-21T07:19:05;6.60;;;5.90;;
2860;SDS011;1438;50.922;6.704;2022-07-21T07:21:31;7.07;;;6.10;;
2860;SDS011;1438;50.922;6.704;2022-07-21T07:23:57;5.40;;;4.93;;
2860;SDS011;1438;50.922;6.704;2022-07-21T07:26:22;5.57;;;5.07;;
2860;SDS011;1438;50.922;6.704;2022-07-21T07:28:48;12.30;;;6.27;;
2860;SDS011;1438;50.922;6.704;2022-07-21T07:31:14;8.50;;;5.80;;
2860;SDS011;1438;50.922;6.704;2022-07-21T07:33:40;5.37;;;4.80;;
2860;SDS011;1438;50.922;6.704;2022-07-21T07:36:07;6.40;;;5.20;;
2860;SDS011;1438;50.922;6.704;2022-07-21T07:38:36;5.70;;;5.20;;
2860;SDS011;1438;50.922;6.704;2022-07-21T07:41:02;5.43;;;4.93;;
2860;SDS011;1438;50.922;6.704;2022-07-21T07:43:28;7.90;;;5.10;;
2860;SDS011;1438;50.922;6.704;2022-07-21T07:45:54;7.83;;;5.23;;
2860;SDS011;1438;50.922;6.704;2022-07-21T07:48:20;6.20;;;5.40;;
2860;SDS011;1438;50.922;6.704;2022-07-21T07:50:46;6.83;;;5.30;;
2860;SDS011;1438;50.922;6.704;2022-07-21T07:53:12;6.63;;;5.30;;
2860;SDS011;1438;50.922;6.704;2022-07-21T07:55:38;6.40;;;4.73;;
2860;SDS011;1438;50.922;6.704;2022-07-21T07:58:04;8.60;;;5.40;;
2860;SDS011;1438;50.922;6.704;2022-07-21T08:00:30;7.00;;;6.30;;
2860;SDS011;1438;50.922;6.704;2022-07-21T08:02:56;12.67;;;6.43;;
2860;SDS011;1438;50.922;6.704;2022-07-21T08:05:22;5.60;;;5.10;;
2860;SDS011;1438;50.922;6.704;2022-07-21T08:07:48;7.40;;;5.40;;
2860;SDS011;1438;50.922;6.704;2022-07-21T08:10:14;5.60;;;5.10;;
2860;SDS011;1438;50.922;6.704;2022-07-21T08:12:40;6.77;;;5.97;;
2860;SDS011;1438;50.922;6.704;2022-07-21T08:15:06;6.30;;;5.10;;
2860;SDS011;1438;50.922;6.704;2022-07-21T08:17:33;7.60;;;5.20;;
2860;SDS011;1438;50.922;6.704;2022-07-21T08:19:59;8.03;;;6.07;;
2860;SDS011;1438;50.922;6.704;2022-07-21T08:22:25;6.30;;;5.70;;
2860;SDS011;1438;50.922;6.704;2022-07-21T08:24:51;7.80;;;6.03;;
2860;SDS011;1438;50.922;6.704;2022-07-21T08:27:17;8.40;;;6.90;;
2860;SDS011;1438;50.922;6.704;2022-07-21T08:29:43;7.57;;;6.17;;
2860;SDS011;1438;50.922;6.704;2022-07-21T08:32:11;6.30;;;4.80;;
2860;SDS011;1438;50.922;6.704;2022-07-21T08:34:37;6.10;;;5.50;;
2860;SDS011;1438;50.922;6.704;2022-07-21T08:37:03;8.70;;;6.03;;
2860;SDS011;1438;50.922;6.704;2022-07-21T08:39:29;6.10;;;5.30;;
2860;SDS011;1438;50.922;6.704;2022-07-21T08:41:55;6.60;;;5.67;;
2860;SDS011;1438;50.922;6.704;2022-07-21T08:44:22;8.37;;;6.27;;
2860;SDS011;1438;50.922;6.704;2022-07-21T08:46:49;5.10;;;4.70;;
2860;SDS011;1438;50.922;6.704;2022-07-21T08:49:16;5.57;;;5.07;;
2860;SDS011;1438;50.922;6.704;2022-07-21T08:51:45;4.90;;;4.20;;
2860;SDS011;1438;50.922;6.704;2022-07-21T08:54:11;6.37;;;4.40;;
2860;SDS011;1438;50.922;6.704;2022-07-21T08:56:37;5.10;;;4.60;;
2860;SDS011;1438;50.922;6.704;2022-07-21T08:59:03;5.77;;;4.50;;
2860;SDS011;1438;50.922;6.704;2022-07-21T09:01:30;7.03;;;4.70;;
2860;SDS011;1438;50.922;6.704;2022-07-21T09:04:00;4.67;;;4.27;;
2860;SDS011;1438;50.922;6.704;2022-07-21T09:06:58;5.47;;;4.43;;
2860;SDS011;1438;50.922;6.704;2022-07-21T09:09:26;5.10;;;4.07;;
2860;SDS011;1438;50.922;6.704;2022-07-21T09:11:52;5.73;;;4.57;;
2860;SDS011;1438;50.922;6.704;2022-07-21T09:14:20;9.13;;;4.53;;
2860;SDS011;1438;50.922;6.704;2022-07-21T09:16:56;4.67;;;4.20;;
2860;SDS011;1438;50.922;6.704;2022-07-21T09:19:26;6.63;;;4.40;;
2860;SDS011;1438;50.922;6.704;2022-07-21T09:21:54;6.20;;;5.00;;
2860;SDS011;1438;50.922;6.704;2022-07-21T09:24:28;6.20;;;4.53;;
2860;SDS011;1438;50.922;6.704;2022-07-21T09:27:04;5.57;;;4.60;;
2860;SDS011;1438;50.922;6.704;2022-07-21T09:29:32;9.73;;;5.10;;
2860;SDS011;1438;50.922;6.704;2022-07-21T09:32:01;4.57;;;4.10;;
2860;SDS011;1438;50.922;6.704;2022-07-21T09:34:37;5.03;;;3.67;;
2860;SDS011;1438;50.922;6.704;2022-07-21T09:37:04;4.43;;;4.03;;
2860;SDS011;1438;50.922;6.704;2022-07-21T09:42:12;7.70;;;4.00;;
2860;SDS011;1438;50.922;6.704;2022-07-21T09:44:41;7.23;;;4.30;;
2860;SDS011;1438;50.922;6.704;2022-07-21T09:47:11;3.70;;;3.00;;
2860;SDS011;1438;50.922;6.704;2022-07-21T09:49:37;9.10;;;3.60;;
2860;SDS011;1438;50.922;6.704;2022-07-21T09:52:16;9.90;;;4.90;;
2860;SDS011;1438;50.922;6.704;2022-07-21T09:54:43;4.47;;;3.70;;
2860;SDS011;1438;50.922;6.704;2022-07-21T09:57:09;3.63;;;3.33;;
2860;SDS011;1438;50.922;6.704;2022-07-21T09:59:35;5.50;;;3.80;;
2860;SDS011;1438;50.922;6.704;2022-07-21T10:02:02;4.90;;;4.40;;
2860;SDS011;1438;50.922;6.704;2022-07-21T10:04:28;4.60;;;3.80;;
2860;SDS011;1438;50.922;6.704;2022-07-21T10:06:55;6.60;;;4.30;;
2860;SDS011;1438;50.922;6.704;2022-07-21T10:09:22;4.87;;;4.37;;
2860;SDS011;1438;50.922;6.704;2022-07-21T10:11:48;5.50;;;4.00;;
2860;SDS011;1438;50.922;6.704;2022-07-21T10:14:14;4.47;;;3.93;;
2860;SDS011;1438;50.922;6.704;2022-07-21T10:16:40;5.07;;;4.00;;
2860;SDS011;1438;50.922;6.704;2022-07-21T10:21:37;5.33;;;4.30;;
2860;SDS011;1438;50.922;6.704;2022-07-21T10:24:05;5.17;;;4.60;;
2860;SDS011;1438;50.922;6.704;2022-07-21T10:26:31;7.43;;;4.80;;
2860;SDS011;1438;50.922;6.704;2022-07-21T10:28:57;5.03;;;4.30;;
2860;SDS011;1438;50.922;6.704;2022-07-21T10:31:24;8.17;;;5.03;;
2860;SDS011;1438;50.922;6.704;2022-07-21T10:33:57;6.37;;;5.10;;
2860;SDS011;1438;50.922;6.704;2022-07-21T10:41:38;7.77;;;6.40;;
2860;SDS011;1438;50.922;6.704;2022-07-21T10:44:38;6.80;;;5.87;;
2860;SDS011;1438;50.922;6.704;2022-07-21T10:55:19;7.50;;;6.40;;
2860;SDS011;1438;50.922;6.704;2022-07-21T11:00:44;10.40;;;8.90;;
2860;SDS011;1438;50.922;6.704;2022-07-21T11:04:06;9.83;;;8.93;;
2860;SDS011;1438;50.922;6.704;2022-07-21T11:08:37;14.10;;;11.40;;
2860;SDS011;1438;50.922;6.704;2022-07-21T11:11:11;17.27;;;11.43;;
2860;SDS011;1438;50.922;6.704;2022-07-21T11:16:22;20.50;;;13.13;;
2860;SDS011;1438;50.922;6.704;2022-07-21T11:18:48;23.63;;;14.43;;
2860;SDS011;1438;50.922;6.704;2022-07-21T11:21:15;17.10;;;15.30;;
2860;SDS011;1438;50.922;6.704;2022-07-21T11:26:10;22.43;;;16.70;;
2860;SDS011;1438;50.922;6.704;2022-07-21T11:28:37;20.17;;;16.70;;
2860;SDS011;1438;50.922;6.704;2022-07-21T11:31:14;23.93;;;16.83;;
2860;SDS011;1438;50.922;6.704;2022-07-21T11:33:41;19.40;;;16.20;;
2860;SDS011;1438;50.922;6.704;2022-07-21T11:36:07;16.57;;;14.93;;
2860;SDS011;1438;50.922;6.704;2022-07-21T11:38:34;20.23;;;17.30;;
2860;SDS011;1438;50.922;6.704;2022-07-21T11:41:13;20.30;;;16.70;;
2860;SDS011;1438;50.922;6.704;2022-07-21T11:43:40;25.20;;;18.30;;
2860;SDS011;1438;50.922;6.704;2022-07-21T11:46:07;21.70;;;18.03;;
2860;SDS011;1438;50.922;6.704;2022-07-21T11:48:33;26.70;;;19.63;;
2860;SDS011;1438;50.922;6.704;2022-07-21T11:51:00;22.20;;;18.40;;
2860;SDS011;1438;50.922;6.704;2022-07-21T11:53:26;20.00;;;17.90;;
2860;SDS011;1438;50.922;6.704;2022-07-21T11:55:52;21.30;;;19.10;;
2860;SDS011;1438;50.922;6.704;2022-07-21T11:58:19;21.03;;;18.00;;
2860;SDS011;1438;50.922;6.704;2022-07-21T12:00:45;24.97;;;19.47;;
2860;SDS011;1438;50.922;6.704;2022-07-21T12:03:11;23.90;;;20.23;;
2860;SDS011;1438;50.922;6.704;2022-07-21T12:05:38;24.93;;;20.93;;
2860;SDS011;1438;50.922;6.704;2022-07-21T12:08:04;23.63;;;20.90;;
2860;SDS011;1438;50.922;6.704;2022-07-21T12:10:31;23.17;;;19.83;;
2860;SDS011;1438;50.922;6.704;2022-07-21T12:13:06;26.10;;;20.30;;
2860;SDS011;1438;50.922;6.704;2022-07-21T12:15:33;23.60;;;21.03;;
2860;SDS011;1438;50.922;6.704;2022-07-21T12:18:01;22.37;;;19.90;;
2860;SDS011;1438;50.922;6.704;2022-07-21T12:20:35;27.33;;;21.07;;
2860;SDS011;1438;50.922;6.704;2022-07-21T12:23:18;24.37;;;20.93;;
2860;SDS011;1438;50.922;6.704;2022-07-21T12:25:44;21.07;;;18.97;;
2860;SDS011;1438;50.922;6.704;2022-07-21T12:28:10;20.83;;;18.63;;
2860;SDS011;1438;50.922;6.704;2022-07-21T12:30:43;24.63;;;18.43;;
2860;SDS011;1438;50.922;6.704;2022-07-21T12:35:37;24.77;;;19.70;;
2860;SDS011;1438;50.922;6.704;2022-07-21T12:40:34;24.30;;;19.50;;
2860;SDS011;1438;50.922;6.704;2022-07-21T12:43:07;30.53;;;22.20;;
2860;SDS011;1438;50.922;6.704;2022-07-21T12:45:47;26.23;;;22.23;;
2860;SDS011;1438;50.922;6.704;2022-07-21T12:48:14;26.50;;;22.73;;
2860;SDS011;1438;50.922;6.704;2022-07-21T12:50:42;25.50;;;22.73;;
2860;SDS011;1438;50.922;6.704;2022-07-21T12:53:21;29.63;;;22.93;;
2860;SDS011;1438;50.922;6.704;2022-07-21T12:55:47;36.77;;;22.30;;
2860;SDS011;1438;50.922;6.704;2022-07-21T12:58:13;32.83;;;24.00;;
2860;SDS011;1438;50.922;6.704;2022-07-21T13:00:39;29.93;;;24.80;;
2860;SDS011;1438;50.922;6.704;2022-07-21T13:03:05;32.57;;;25.17;;
2860;SDS011;1438;50.922;6.704;2022-07-21T13:05:31;40.90;;;29.17;;
2860;SDS011;1438;50.922;6.704;2022-07-21T13:07:57;32.27;;;26.83;;
2860;SDS011;1438;50.922;6.704;2022-07-21T13:10:23;28.10;;;25.17;;
2860;SDS011;1438;50.922;6.704;2022-07-21T13:12:49;33.80;;;27.97;;
2860;SDS011;1438;50.922;6.704;2022-07-21T13:15:16;37.83;;;30.13;;
2860;SDS011;1438;50.922;6.704;2022-07-21T13:17:42;36.90;;;28.67;;
2860;SDS011;1438;50.922;6.704;2022-07-21T13:20:09;21.40;;;19.07;;
2860;SDS011;1438;50.922;6.704;2022-07-21T13:22:35;19.70;;;17.20;;
2860;SDS011;1438;50.922;6.704;2022-07-21T13:25:02;18.03;;;16.30;;
2860;SDS011;1438;50.922;6.704;2022-07-21T13:27:28;12.53;;;11.23;;
2860;SDS011;1438;50.922;6.704;2022-07-21T13:29:54;16.83;;;14.43;;
2860;SDS011;1438;50.922;6.704;2022-07-21T13:32:20;15.07;;;13.60;;
2860;SDS011;1438;50.922;6.704;2022-07-21T13:34:47;13.07;;;11.73;;
2860;SDS011;1438;50.922;6.704;2022-07-21T13:37:13;14.13;;;12.70;;
2860;SDS011;1438;50.922;6.704;2022-07-21T13:39:39;15.07;;;13.57;;
2860;SDS011;1438;50.922;6.704;2022-07-21T13:42:05;14.53;;;12.97;;
2860;SDS011;1438;50.922;6.704;2022-07-21T13:44:32;16.00;;;13.70;;
2860;SDS011;1438;50.922;6.704;2022-07-21T13:46:58;16.80;;;12.20;;
2860;SDS011;1438;50.922;6.704;2022-07-21T13:49:24;15.67;;;13.20;;
2860;SDS011;1438;50.922;6.704;2022-07-21T13:51:50;14.80;;;13.50;;
2860;SDS011;1438;50.922;6.704;2022-07-21T13:54:16;17.23;;;15.47;;
2860;SDS011;1438;50.922;6.704;2022-07-21T13:56:42;16.03;;;14.43;;
2860;SDS011;1438;50.922;6.704;2022-07-21T13:59:08;18.30;;;16.37;;
2860;SDS011;1438;50.922;6.704;2022-07-21T14:01:34;17.00;;;15.30;;
2860;SDS011;1438;50.922;6.704;2022-07-21T14:04:00;19.40;;;16.43;;
2860;SDS011;1438;50.922;6.704;2022-07-21T14:06:26;20.83;;;16.07;;
2860;SDS011;1438;50.922;6.704;2022-07-21T14:08:52;20.37;;;18.33;;
2860;SDS011;1438;50.922;6.704;2022-07-21T14:11:18;22.00;;;17.33;;
2860;SDS011;1438;50.922;6.704;2022-07-21T14:13:47;19.30;;;16.73;;
2860;SDS011;1438;50.922;6.704;2022-07-21T14:16:13;22.87;;;17.57;;
2860;SDS011;1438;50.922;6.704;2022-07-21T14:18:39;19.90;;;17.80;;
2860;SDS011;1438;50.922;6.704;2022-07-21T14:21:05;19.47;;;17.47;;
2860;SDS011;1438;50.922;6.704;2022-07-21T14:23:32;21.57;;;19.33;;
2860;SDS011;1438;50.922;6.704;2022-07-21T14:25:58;19.97;;;17.77;;
2860;SDS011;1438;50.922;6.704;2022-07-21T14:28:24;22.37;;;18.53;;
2860;SDS011;1438;50.922;6.704;2022-07-21T14:30:51;27.37;;;16.83;;
2860;SDS011;1438;50.922;6.704;2022-07-21T14:33:17;24.50;;;18.33;;
2860;SDS011;1438;50.922;6.704;2022-07-21T14:35:43;21.10;;;17.27;;
2860;SDS011;1438;50.922;6.704;2022-07-21T14:38:09;17.97;;;14.30;;
2860;SDS011;1438;50.922;6.704;2022-07-21T14:40:35;14.87;;;12.63;;
2860;SDS011;1438;50.922;6.704;2022-07-21T14:43:01;15.70;;;11.60;;
2860;SDS011;1438;50.922;6.704;2022-07-21T14:45:28;14.70;;;11.60;;
2860;SDS011;1438;50.922;6.704;2022-07-21T14:47:54;15.87;;;10.87;;
2860;SDS011;1438;50.922;6.704;2022-07-21T14:50:21;11.60;;;10.50;;
2860;SDS011;1438;50.922;6.704;2022-07-21T14:52:48;13.33;;;10.73;;
2860;SDS011;1438;50.922;6.704;2022-07-21T14:55:14;10.63;;;9.53;;
2860;SDS011;1438;50.922;6.704;2022-07-21T14:57:40;13.53;;;10.43;;
2860;SDS011;1438;50.922;6.704;2022-07-21T15:00:07;12.23;;;10.03;;
2860;SDS011;1438;50.922;6.704;2022-07-21T15:02:33;16.13;;;10.90;;
2860;SDS011;1438;50.922;6.704;2022-07-21T15:05:00;12.20;;;10.93;;
2860;SDS011;1438;50.922;6.704;2022-07-21T15:07:26;14.20;;;10.87;;
2860;SDS011;1438;50.922;6.704;2022-07-21T15:09:52;12.60;;;10.93;;
2860;SDS011;1438;50.922;6.704;2022-07-21T15:12:20;13.07;;;9.70;;
2860;SDS011;1438;50.922;6.704;2022-07-21T15:14:46;9.63;;;8.73;;
2860;SDS011;1438;50.922;6.704;2022-07-21T15:17:12;10.67;;;9.47;;
2860;SDS011;1438;50.922;6.704;2022-07-21T15:19:38;13.20;;;11.83;;
2860;SDS011;1438;50.922;6.704;2022-07-21T15:22:04;13.50;;;12.10;;
2860;SDS011;1438;50.922;6.704;2022-07-21T15:24:30;13.80;;;12.30;;
2860;SDS011;1438;50.922;6.704;2022-07-21T15:26:56;14.37;;;12.00;;
2860;SDS011;1438;50.922;6.704;2022-07-21T15:29:22;13.70;;;11.87;;